createdAt,value
2018-04-09T00:00:21.476Z,16.70
2018-04-09T00:01:23.303Z,16.60
2018-04-09T00:02:24.396Z,16.60
2018-04-09T00:03:25.472Z,16.50
2018-04-09T00:04:26.540Z,16.50
2018-04-09T00:05:28.345Z,16.50
2018-04-09T00:06:29.435Z,16.50
2018-04-09T00:07:30.516Z,16.50
2018-04-09T00:08:31.602Z,16.50
2018-04-09T00:09:32.685Z,16.50
2018-04-09T00:10:34.530Z,16.50
2018-04-09T00:11:35.587Z,16.60
2018-04-09T00:12:37.426Z,16.60
2018-04-09T00:13:38.493Z,16.50
2018-04-09T00:14:40.288Z,16.60
2018-04-09T00:15:41.364Z,16.50
2018-04-09T00:16:43.209Z,16.60
2018-04-09T00:17:45.027Z,16.70
2018-04-09T00:18:46.076Z,16.60
2018-04-09T00:19:47.125Z,16.60
2018-04-09T00:20:48.179Z,16.50
2018-04-09T00:21:49.300Z,16.50
2018-04-09T00:22:50.393Z,16.50
2018-04-09T00:23:51.508Z,16.40
2018-04-09T00:24:52.569Z,16.50
2018-04-09T00:25:53.695Z,16.40
2018-04-09T00:26:54.744Z,16.40
2018-04-09T00:27:55.841Z,16.40
2018-04-09T00:28:56.891Z,16.50
2018-04-09T00:29:57.939Z,16.40
2018-04-09T00:30:59.000Z,16.40
2018-04-09T00:32:00.062Z,16.40
2018-04-09T00:33:01.148Z,16.40
2018-04-09T00:34:02.959Z,16.30
2018-04-09T00:35:04.087Z,16.30
2018-04-09T00:36:05.168Z,16.30
2018-04-09T00:37:06.234Z,16.30
2018-04-09T00:38:07.305Z,16.30
2018-04-09T00:39:08.400Z,16.30
2018-04-09T00:40:09.468Z,16.30
2018-04-09T00:41:10.559Z,16.20
2018-04-09T00:42:11.654Z,16.20
2018-04-09T00:43:13.462Z,16.10
2018-04-09T00:44:14.536Z,16.10
2018-04-09T00:45:16.356Z,16.10
2018-04-09T00:46:17.416Z,16.10
2018-04-09T00:47:19.238Z,16.00
2018-04-09T00:48:20.318Z,16.00
2018-04-09T00:49:21.401Z,16.00
2018-04-09T00:50:23.225Z,16.00
2018-04-09T00:51:24.312Z,16.00
2018-04-09T00:52:25.392Z,16.00
2018-04-09T00:53:38.808Z,16.10
2018-04-09T00:54:39.879Z,16.00
2018-04-09T00:55:40.941Z,16.00
2018-04-09T00:56:42.008Z,15.90
2018-04-09T00:57:43.078Z,15.90
2018-04-09T00:58:44.138Z,15.90
2018-04-09T00:59:45.228Z,15.90
2018-04-09T01:00:46.315Z,15.90
2018-04-09T01:01:47.388Z,15.90
2018-04-09T01:02:48.456Z,15.90
2018-04-09T01:03:50.275Z,15.90
2018-04-09T01:04:51.385Z,15.80
2018-04-09T01:05:52.464Z,15.90
2018-04-09T01:06:54.292Z,15.80
2018-04-09T01:07:55.372Z,15.80
2018-04-09T01:08:56.461Z,15.80
2018-04-09T01:09:58.292Z,15.80
2018-04-09T01:10:59.369Z,15.80
2018-04-09T01:12:01.184Z,15.80
2018-04-09T01:13:02.257Z,15.80
2018-04-09T01:14:03.333Z,15.80
2018-04-09T01:15:04.415Z,15.80
2018-04-09T01:16:06.219Z,15.60
2018-04-09T01:17:07.344Z,15.60
2018-04-09T01:18:08.409Z,15.60
2018-04-09T01:19:10.238Z,15.60
2018-04-09T01:20:11.308Z,15.60
2018-04-09T01:21:13.108Z,15.70
2018-04-09T01:22:14.191Z,15.60
2018-04-09T01:23:15.268Z,15.60
2018-04-09T01:24:16.359Z,15.60
2018-04-09T01:25:17.418Z,15.60
2018-04-09T01:26:18.505Z,15.70
2018-04-09T01:27:19.573Z,15.60
2018-04-09T01:28:20.672Z,15.60
2018-04-09T01:29:21.765Z,15.60
2018-04-09T01:30:22.852Z,15.50
2018-04-09T01:31:24.657Z,15.50
2018-04-09T01:32:25.746Z,15.60
2018-04-09T01:33:26.802Z,15.50
2018-04-09T01:34:27.936Z,15.50
2018-04-09T01:35:29.009Z,15.60
2018-04-09T01:36:30.087Z,15.40
2018-04-09T01:37:31.140Z,15.40
2018-04-09T01:38:32.237Z,15.40
2018-04-09T01:39:33.477Z,15.40
2018-04-09T01:40:34.550Z,15.40
2018-04-09T01:41:35.629Z,15.40
2018-04-09T01:42:36.694Z,15.40
2018-04-09T01:43:37.777Z,15.40
2018-04-09T01:44:39.570Z,15.30
2018-04-09T01:45:40.624Z,15.30
2018-04-09T01:46:41.696Z,15.30
2018-04-09T01:47:43.501Z,15.30
2018-04-09T01:48:44.562Z,15.30
2018-04-09T01:49:45.636Z,15.30
2018-04-09T01:50:46.692Z,15.30
2018-04-09T01:51:47.763Z,15.30
2018-04-09T01:52:49.555Z,15.30
2018-04-09T01:53:50.633Z,15.30
2018-04-09T01:54:51.720Z,15.30
2018-04-09T01:55:52.796Z,15.30
2018-04-09T01:56:53.868Z,15.30
2018-04-09T01:57:54.925Z,15.30
2018-04-09T01:58:55.968Z,15.30
2018-04-09T01:59:57.035Z,15.30
2018-04-09T02:00:58.126Z,15.30
2018-04-09T02:01:59.211Z,15.30
2018-04-09T02:03:01.005Z,15.30
2018-04-09T02:04:02.060Z,15.30
2018-04-09T02:05:03.136Z,15.30
2018-04-09T02:06:04.201Z,15.30
2018-04-09T02:07:05.272Z,15.30
2018-04-09T02:08:06.336Z,15.30
2018-04-09T02:09:07.410Z,15.20
2018-04-09T02:10:08.488Z,15.20
2018-04-09T02:11:09.564Z,15.20
2018-04-09T02:12:10.653Z,15.20
2018-04-09T02:13:11.724Z,15.20
2018-04-09T02:14:12.787Z,15.20
2018-04-09T02:15:13.880Z,15.30
2018-04-09T02:16:14.928Z,15.20
2018-04-09T02:17:15.984Z,15.20
2018-04-09T02:18:17.052Z,15.20
2018-04-09T02:19:18.108Z,15.10
2018-04-09T02:20:19.176Z,15.10
2018-04-09T02:21:20.260Z,15.10
2018-04-09T02:22:21.336Z,15.10
2018-04-09T02:23:22.391Z,15.10
2018-04-09T02:24:23.478Z,15.10
2018-04-09T02:25:24.552Z,15.10
2018-04-09T02:26:26.388Z,15.00
2018-04-09T02:27:27.440Z,15.00
2018-04-09T02:28:29.248Z,14.90
2018-04-09T02:29:30.300Z,15.00
2018-04-09T02:30:31.376Z,14.90
2018-04-09T02:31:32.446Z,14.80
2018-04-09T02:32:33.513Z,14.80
2018-04-09T02:33:35.324Z,14.80
2018-04-09T02:34:36.397Z,14.80
2018-04-09T02:35:37.468Z,14.80
2018-04-09T02:36:38.542Z,14.90
2018-04-09T02:37:40.381Z,14.90
2018-04-09T02:38:41.440Z,14.80
2018-04-09T02:39:43.257Z,14.90
2018-04-09T02:40:44.334Z,14.90
2018-04-09T02:41:45.414Z,14.90
2018-04-09T02:42:46.500Z,14.90
2018-04-09T02:43:47.569Z,14.90
2018-04-09T02:44:48.628Z,14.80
2018-04-09T02:45:49.680Z,14.90
2018-04-09T02:46:52.116Z,14.90
2018-04-09T02:47:53.184Z,14.80
2018-04-09T02:48:54.989Z,14.80
2018-04-09T02:49:56.085Z,14.80
2018-04-09T02:50:57.174Z,14.90
2018-04-09T02:51:58.237Z,14.80
2018-04-09T02:52:59.298Z,14.90
2018-04-09T02:54:00.357Z,14.80
2018-04-09T02:55:01.425Z,14.80
2018-04-09T02:56:03.247Z,14.80
2018-04-09T02:57:04.321Z,14.80
2018-04-09T02:58:05.385Z,14.80
2018-04-09T02:59:06.444Z,14.80
2018-04-09T03:00:07.508Z,14.70
2018-04-09T03:01:08.587Z,14.70
2018-04-09T03:02:09.676Z,14.60
2018-04-09T03:03:10.750Z,14.60
2018-04-09T03:04:11.835Z,14.60
2018-04-09T03:05:12.961Z,14.60
2018-04-09T03:06:14.001Z,14.60
2018-04-09T03:07:15.077Z,14.60
2018-04-09T03:08:16.152Z,14.60
2018-04-09T03:09:17.990Z,14.60
2018-04-09T03:10:19.041Z,14.60
2018-04-09T03:11:20.849Z,14.60
2018-04-09T03:12:21.913Z,14.50
2018-04-09T03:13:23.732Z,14.60
2018-04-09T03:14:24.799Z,14.60
2018-04-09T03:15:26.602Z,14.60
2018-04-09T03:16:27.670Z,14.70
2018-04-09T03:17:28.721Z,14.60
2018-04-09T03:18:30.520Z,14.60
2018-04-09T03:19:31.589Z,14.60
2018-04-09T03:20:33.418Z,14.50
2018-04-09T03:21:34.487Z,14.50
2018-04-09T03:22:35.548Z,14.50
2018-04-09T03:23:36.616Z,14.50
2018-04-09T03:24:37.681Z,14.50
2018-04-09T03:25:38.748Z,14.30
2018-04-09T03:26:39.835Z,14.50
2018-04-09T03:27:40.890Z,14.60
2018-04-09T03:28:41.955Z,14.50
2018-04-09T03:29:43.008Z,14.50
2018-04-09T03:30:44.074Z,14.50
2018-04-09T03:31:45.156Z,14.50
2018-04-09T03:32:46.229Z,14.60
2018-04-09T03:33:48.043Z,14.60
2018-04-09T03:34:49.124Z,14.50
2018-04-09T03:35:50.193Z,14.50
2018-04-09T03:36:51.286Z,14.50
2018-04-09T03:37:52.357Z,14.50
2018-04-09T03:38:53.445Z,14.60
2018-04-09T03:39:55.281Z,14.60
2018-04-09T03:40:57.125Z,14.50
2018-04-09T03:41:58.960Z,14.50
2018-04-09T03:43:00.025Z,14.50
2018-04-09T03:44:01.085Z,14.50
2018-04-09T03:46:11.624Z,14.60
2018-04-09T03:47:12.697Z,14.60
2018-04-09T03:48:13.764Z,14.60
2018-04-09T03:49:14.833Z,14.60
2018-04-09T03:50:15.920Z,14.60
2018-04-09T03:51:17.016Z,14.50
2018-04-09T03:52:18.141Z,14.60
2018-04-09T03:53:19.232Z,14.50
2018-04-09T03:54:21.039Z,14.60
2018-04-09T03:55:22.100Z,14.50
2018-04-09T03:56:23.930Z,14.50
2018-04-09T03:57:25.008Z,14.50
2018-04-09T03:58:26.178Z,14.50
2018-04-09T03:59:27.969Z,14.40
2018-04-09T04:00:29.036Z,14.40
2018-04-09T04:01:30.113Z,14.40
2018-04-09T04:02:31.184Z,14.40
2018-04-09T04:03:32.249Z,14.40
2018-04-09T04:04:33.325Z,14.40
2018-04-09T04:05:34.413Z,14.40
2018-04-09T04:06:35.520Z,14.40
2018-04-09T04:07:36.596Z,14.50
2018-04-09T04:08:37.673Z,14.30
2018-04-09T04:09:38.774Z,14.40
2018-04-09T04:10:39.872Z,14.30
2018-04-09T04:11:40.953Z,14.30
2018-04-09T04:12:42.032Z,14.20
2018-04-09T04:13:43.112Z,14.20
2018-04-09T04:14:44.189Z,14.40
2018-04-09T04:15:57.477Z,14.30
2018-04-09T04:17:10.900Z,14.30
2018-04-09T04:18:24.392Z,14.20
2018-04-09T04:19:37.812Z,14.20
2018-04-09T04:20:51.265Z,14.40
2018-04-09T04:21:52.333Z,14.20
2018-04-09T04:22:53.418Z,14.20
2018-04-09T04:23:54.485Z,14.20
2018-04-09T04:24:55.600Z,14.20
2018-04-09T04:25:57.432Z,14.20
2018-04-09T04:26:58.532Z,14.20
2018-04-09T04:27:59.617Z,14.20
2018-04-09T04:29:00.708Z,14.20
2018-04-09T04:30:01.840Z,14.30
2018-04-09T04:31:02.928Z,14.20
2018-04-09T04:32:04.730Z,14.20
2018-04-09T04:33:05.840Z,14.20
2018-04-09T04:34:10.541Z,14.20
2018-04-09T04:35:11.628Z,14.20
2018-04-09T04:36:13.457Z,14.20
2018-04-09T04:37:14.536Z,14.20
2018-04-09T04:38:23.483Z,14.20
2018-04-09T04:39:24.581Z,14.20
2018-04-09T04:40:26.453Z,14.20
2018-04-09T04:41:27.562Z,14.20
2018-04-09T04:42:29.377Z,14.20
2018-04-09T04:43:30.482Z,14.20
2018-04-09T04:44:31.597Z,14.10
2018-04-09T04:45:32.691Z,14.10
2018-04-09T04:46:33.749Z,14.10
2018-04-09T04:47:34.952Z,14.10
2018-04-09T04:48:36.056Z,14.20
2018-04-09T04:49:37.130Z,14.10
2018-04-09T04:50:38.221Z,14.10
2018-04-09T04:51:39.289Z,14.10
2018-04-09T04:52:40.408Z,14.00
2018-04-09T04:53:41.520Z,14.00
2018-04-09T04:54:42.624Z,14.00
2018-04-09T04:55:43.688Z,14.00
2018-04-09T04:56:44.797Z,14.00
2018-04-09T04:57:45.860Z,14.00
2018-04-09T04:58:46.932Z,14.00
2018-04-09T04:59:48.006Z,14.20
2018-04-09T05:00:49.073Z,14.00
2018-04-09T05:01:50.200Z,14.10
2018-04-09T05:02:51.282Z,14.00
2018-04-09T05:03:52.394Z,14.00
2018-04-09T05:04:53.493Z,14.00
2018-04-09T05:05:54.588Z,14.00
2018-04-09T05:06:55.673Z,14.00
2018-04-09T05:07:56.773Z,14.10
2018-04-09T05:08:57.901Z,13.90
2018-04-09T05:09:58.965Z,14.00
2018-04-09T05:11:00.053Z,13.90
2018-04-09T05:12:01.950Z,13.90
2018-04-09T05:13:03.044Z,13.80
2018-04-09T05:14:04.154Z,13.80
2018-04-09T05:15:05.313Z,13.80
2018-04-09T05:16:06.433Z,13.80
2018-04-09T05:17:07.581Z,13.90
2018-04-09T05:18:08.705Z,13.90
2018-04-09T05:19:09.836Z,14.00
2018-04-09T05:20:10.928Z,14.00
2018-04-09T05:21:13.428Z,14.10
2018-04-09T05:22:14.892Z,14.10
2018-04-09T05:23:16.774Z,14.10
2018-04-09T05:24:18.069Z,14.20
2018-04-09T05:25:19.292Z,14.20
2018-04-09T05:26:20.527Z,14.20
2018-04-09T05:27:21.660Z,14.20
2018-04-09T05:28:22.759Z,14.20
2018-04-09T05:29:23.849Z,14.20
2018-04-09T05:30:25.153Z,14.10
2018-04-09T05:31:26.305Z,14.10
2018-04-09T05:32:27.397Z,14.10
2018-04-09T05:33:29.257Z,14.10
2018-04-09T05:34:30.354Z,14.10
2018-04-09T05:35:31.473Z,14.20
2018-04-09T05:36:32.685Z,14.20
2018-04-09T05:37:33.786Z,14.20
2018-04-09T05:38:34.886Z,14.20
2018-04-09T05:39:35.991Z,14.20
2018-04-09T05:40:37.296Z,14.30
2018-04-09T05:41:38.757Z,14.30
2018-04-09T05:42:39.949Z,14.30
2018-04-09T05:43:41.030Z,14.30
2018-04-09T05:44:42.160Z,14.30
2018-04-09T05:45:43.228Z,14.40
2018-04-09T05:46:44.329Z,14.40
2018-04-09T05:47:45.440Z,14.40
2018-04-09T05:48:46.541Z,14.60
2018-04-09T05:49:48.016Z,14.40
2018-04-09T05:50:49.072Z,14.40
2018-04-09T05:51:50.124Z,14.40
2018-04-09T05:52:51.212Z,14.40
2018-04-09T05:53:52.315Z,14.40
2018-04-09T05:54:53.605Z,14.40
2018-04-09T05:55:54.805Z,14.30
2018-04-09T05:56:56.652Z,14.40
2018-04-09T05:57:58.463Z,14.40
2018-04-09T05:58:59.529Z,14.40
2018-04-09T06:00:01.501Z,14.40
2018-04-09T06:01:02.575Z,14.40
2018-04-09T06:02:03.672Z,14.40
2018-04-09T06:03:04.737Z,14.40
2018-04-09T06:04:05.945Z,14.40
2018-04-09T06:05:07.135Z,14.40
2018-04-09T06:06:08.208Z,14.40
2018-04-09T06:07:09.265Z,14.40
2018-04-09T06:08:10.342Z,14.40
2018-04-09T06:09:11.420Z,14.40
2018-04-09T06:10:12.513Z,14.40
2018-04-09T06:11:13.596Z,14.40
2018-04-09T06:12:14.656Z,14.50
2018-04-09T06:13:15.733Z,14.50
2018-04-09T06:14:16.820Z,14.50
2018-04-09T06:15:17.884Z,14.60
2018-04-09T06:16:18.953Z,14.80
2018-04-09T06:17:20.020Z,14.70
2018-04-09T06:18:21.093Z,14.70
2018-04-09T06:19:22.141Z,14.70
2018-04-09T06:20:23.223Z,14.90
2018-04-09T06:21:24.353Z,14.80
2018-04-09T06:22:25.387Z,14.80
2018-04-09T06:23:26.432Z,14.80
2018-04-09T06:24:28.247Z,14.90
2018-04-09T06:25:29.325Z,14.90
2018-04-09T06:26:30.408Z,14.90
2018-04-09T06:27:31.476Z,14.90
2018-04-09T06:28:33.296Z,14.90
2018-04-09T06:29:34.384Z,14.90
2018-04-09T06:30:35.518Z,14.90
2018-04-09T06:31:36.572Z,14.90
2018-04-09T06:32:37.621Z,14.90
2018-04-09T06:33:38.688Z,14.90
2018-04-09T06:34:40.518Z,15.00
2018-04-09T06:35:41.577Z,15.00
2018-04-09T06:36:42.680Z,15.00
2018-04-09T06:37:44.512Z,15.00
2018-04-09T06:38:45.596Z,15.00
2018-04-09T06:39:46.700Z,15.00
2018-04-09T06:40:47.796Z,15.10
2018-04-09T06:41:48.868Z,15.20
2018-04-09T06:42:50.721Z,15.10
2018-04-09T06:43:51.809Z,15.10
2018-04-09T06:44:52.898Z,15.10
2018-04-09T06:45:54.724Z,15.10
2018-04-09T06:46:55.864Z,15.10
2018-04-09T06:47:56.937Z,15.10
2018-04-09T06:48:58.040Z,15.20
2018-04-09T06:49:59.141Z,15.20
2018-04-09T06:51:00.284Z,15.20
2018-04-09T06:52:01.347Z,15.20
2018-04-09T06:53:02.420Z,15.30
2018-04-09T06:54:03.509Z,15.30
2018-04-09T06:55:05.342Z,15.30
2018-04-09T06:56:06.417Z,15.30
2018-04-09T06:57:07.597Z,15.30
2018-04-09T06:58:08.671Z,15.30
2018-04-09T06:59:10.491Z,15.40
2018-04-09T07:00:11.624Z,15.40
2018-04-09T07:01:12.736Z,15.40
2018-04-09T07:02:13.812Z,15.40
2018-04-09T07:03:14.905Z,15.40
2018-04-09T07:04:15.989Z,15.40
2018-04-09T07:05:17.099Z,15.40
2018-04-09T07:06:18.925Z,15.40
2018-04-09T07:07:19.998Z,15.40
2018-04-09T07:08:21.085Z,15.40
2018-04-09T07:09:22.162Z,15.40
2018-04-09T07:10:23.300Z,15.50
2018-04-09T07:11:24.385Z,15.40
2018-04-09T07:12:25.439Z,15.50
2018-04-09T07:13:27.262Z,15.50
2018-04-09T07:14:28.320Z,15.50
2018-04-09T07:15:29.420Z,15.50
2018-04-09T07:16:30.521Z,15.50
2018-04-09T07:17:32.336Z,15.50
2018-04-09T07:18:34.255Z,15.50
2018-04-09T07:19:35.310Z,15.60
2018-04-09T07:20:36.396Z,15.60
2018-04-09T07:21:37.471Z,15.60
2018-04-09T07:22:38.532Z,15.60
2018-04-09T07:23:39.620Z,15.60
2018-04-09T07:24:40.696Z,15.70
2018-04-09T07:25:41.776Z,15.70
2018-04-09T07:26:42.840Z,15.70
2018-04-09T07:27:44.688Z,15.80
2018-04-09T07:28:45.744Z,15.80
2018-04-09T07:29:46.820Z,16.00
2018-04-09T07:30:47.900Z,15.90
2018-04-09T07:31:48.964Z,15.90
2018-04-09T07:32:50.056Z,16.00
2018-04-09T07:33:51.193Z,16.00
2018-04-09T07:34:52.285Z,16.10
2018-04-09T07:35:53.389Z,16.10
2018-04-09T07:36:54.506Z,16.10
2018-04-09T07:37:55.602Z,16.20
2018-04-09T07:38:56.693Z,16.20
2018-04-09T07:39:58.512Z,16.30
2018-04-09T07:41:00.316Z,16.30
2018-04-09T07:42:01.392Z,16.30
2018-04-09T07:43:03.204Z,16.30
2018-04-09T07:44:04.259Z,16.30
2018-04-09T07:45:06.073Z,16.30
2018-04-09T07:46:07.160Z,16.30
2018-04-09T07:47:08.965Z,16.40
2018-04-09T07:48:10.037Z,16.30
2018-04-09T07:49:11.115Z,16.40
2018-04-09T07:50:12.220Z,16.30
2018-04-09T07:51:13.284Z,16.30
2018-04-09T07:52:14.354Z,16.40
2018-04-09T07:53:15.436Z,16.40
2018-04-09T07:54:16.499Z,16.40
2018-04-09T07:55:17.575Z,16.40
2018-04-09T07:56:18.647Z,16.50
2018-04-09T07:57:19.717Z,16.50
2018-04-09T07:58:21.504Z,16.50
2018-04-09T07:59:22.555Z,16.50
2018-04-09T08:00:23.681Z,16.50
2018-04-09T08:01:24.738Z,16.50
2018-04-09T08:02:27.166Z,16.50
2018-04-09T08:03:29.002Z,16.50
2018-04-09T08:04:30.135Z,16.50
2018-04-09T08:05:31.576Z,16.50
2018-04-09T08:06:33.903Z,16.60
2018-04-09T08:07:42.442Z,16.60
2018-04-09T08:08:45.866Z,16.60
2018-04-09T08:09:49.109Z,16.70
2018-04-09T08:10:51.767Z,16.70
2018-04-09T08:11:52.868Z,16.70
2018-04-09T08:12:53.933Z,16.70
2018-04-09T08:13:55.724Z,16.80
2018-04-09T08:14:56.812Z,16.80
2018-04-09T08:15:58.620Z,16.90
2018-04-09T08:16:59.748Z,16.80
2018-04-09T08:18:00.901Z,16.90
2018-04-09T08:19:01.995Z,16.90
2018-04-09T08:20:03.052Z,17.00
2018-04-09T08:21:04.128Z,17.00
2018-04-09T08:22:05.927Z,17.00
2018-04-09T08:23:06.993Z,17.00
2018-04-09T08:25:16.712Z,17.00
2018-04-09T08:26:17.774Z,17.00
2018-04-09T08:27:19.588Z,17.00
2018-04-09T08:28:20.697Z,17.00
2018-04-09T08:29:21.784Z,17.10
2018-04-09T08:30:23.592Z,17.20
2018-04-09T08:31:24.640Z,17.10
2018-04-09T08:32:25.716Z,17.20
2018-04-09T08:33:26.769Z,17.20
2018-04-09T08:34:27.818Z,17.20
2018-04-09T08:35:28.876Z,17.30
2018-04-09T08:36:29.946Z,17.30
2018-04-09T08:37:31.025Z,17.20
2018-04-09T08:38:32.080Z,17.40
2018-04-09T08:39:33.150Z,17.40
2018-04-09T08:40:34.210Z,17.40
2018-04-09T08:41:35.269Z,17.50
2018-04-09T08:42:36.384Z,17.50
2018-04-09T08:43:37.438Z,17.60
2018-04-09T08:44:39.244Z,17.70
2018-04-09T08:45:40.321Z,17.60
2018-04-09T08:46:42.134Z,17.80
2018-04-09T08:47:43.211Z,17.70
2018-04-09T08:48:44.269Z,17.80
2018-04-09T08:49:46.078Z,17.90
2018-04-09T08:50:47.127Z,18.00
2018-04-09T08:51:48.955Z,17.90
2018-04-09T08:52:50.065Z,17.90
2018-04-09T08:53:51.112Z,17.90
2018-04-09T08:54:52.167Z,17.90
2018-04-09T08:55:53.220Z,17.90
2018-04-09T08:56:54.301Z,17.90
2018-04-09T08:57:55.386Z,18.00
2018-04-09T08:58:56.440Z,17.80
2018-04-09T08:59:57.500Z,17.80
2018-04-09T09:00:58.572Z,17.90
2018-04-09T09:01:59.656Z,17.90
2018-04-09T09:03:00.736Z,18.00
2018-04-09T09:04:01.833Z,18.00
2018-04-09T09:05:02.926Z,18.10
2018-04-09T09:06:03.980Z,18.10
2018-04-09T09:07:05.031Z,18.20
2018-04-09T09:08:06.144Z,18.10
2018-04-09T09:09:07.210Z,18.20
2018-04-09T09:10:09.004Z,18.30
2018-04-09T09:11:10.061Z,18.30
2018-04-09T09:12:11.149Z,18.30
2018-04-09T09:13:12.227Z,18.30
2018-04-09T09:14:13.317Z,18.40
2018-04-09T09:15:14.390Z,18.60
2018-04-09T09:16:15.484Z,18.50
2018-04-09T09:17:16.567Z,18.60
2018-04-09T09:18:17.677Z,18.70
2018-04-09T09:19:18.800Z,18.70
2018-04-09T09:20:19.885Z,18.70
2018-04-09T09:21:21.692Z,18.90
2018-04-09T09:22:22.793Z,18.90
2018-04-09T09:23:24.609Z,19.00
2018-04-09T09:24:25.694Z,18.90
2018-04-09T09:25:26.772Z,19.00
2018-04-09T09:26:27.836Z,19.10
2018-04-09T09:27:28.925Z,19.10
2018-04-09T09:28:30.016Z,19.20
2018-04-09T09:29:31.126Z,19.20
2018-04-09T09:30:32.144Z,19.30
2018-04-09T09:31:33.200Z,19.30
2018-04-09T09:32:34.244Z,19.30
2018-04-09T09:33:35.338Z,19.40
2018-04-09T09:34:37.155Z,19.40
2018-04-09T09:35:38.208Z,19.40
2018-04-09T09:36:39.274Z,19.40
2018-04-09T09:37:40.353Z,19.50
2018-04-09T09:38:41.448Z,19.50
2018-04-09T09:39:42.506Z,19.40
2018-04-09T09:40:43.629Z,19.50
2018-04-09T09:41:44.688Z,19.50
2018-04-09T09:42:45.812Z,19.50
2018-04-09T09:43:46.902Z,19.50
2018-04-09T09:44:48.016Z,19.50
2018-04-09T09:45:49.812Z,19.60
2018-04-09T09:46:50.863Z,19.60
2018-04-09T09:47:51.926Z,19.50
2018-04-09T09:48:52.992Z,19.60
2018-04-09T09:49:54.053Z,19.60
2018-04-09T09:50:55.124Z,19.60
2018-04-09T09:51:56.920Z,19.70
2018-04-09T09:52:58.002Z,19.70
2018-04-09T09:53:59.082Z,19.70
2018-04-09T09:55:00.173Z,19.80
2018-04-09T09:56:01.241Z,19.90
2018-04-09T09:57:02.346Z,19.80
2018-04-09T09:58:04.178Z,19.90
2018-04-09T09:59:05.284Z,19.90
2018-04-09T10:00:06.377Z,19.90
2018-04-09T10:01:08.300Z,20.10
2018-04-09T10:02:10.132Z,20.00
2018-04-09T10:03:11.214Z,20.00
2018-04-09T10:04:12.319Z,20.00
2018-04-09T10:05:14.119Z,20.00
2018-04-09T10:06:15.192Z,20.00
2018-04-09T10:07:16.985Z,20.10
2018-04-09T10:08:18.035Z,20.10
2018-04-09T10:09:19.113Z,20.10
2018-04-09T10:10:20.266Z,20.10
2018-04-09T10:11:21.345Z,20.10
2018-04-09T10:12:22.468Z,20.20
2018-04-09T10:13:23.528Z,20.20
2018-04-09T10:14:25.353Z,20.20
2018-04-09T10:15:26.420Z,20.20
2018-04-09T10:16:28.215Z,20.30
2018-04-09T10:17:29.307Z,20.20
2018-04-09T10:18:31.122Z,20.30
2018-04-09T10:19:32.188Z,20.20
2018-04-09T10:20:34.000Z,20.40
2018-04-09T10:21:35.084Z,20.40
2018-04-09T10:22:36.296Z,20.50
2018-04-09T10:23:37.409Z,20.50
2018-04-09T10:24:38.518Z,20.60
2018-04-09T10:25:39.618Z,20.70
2018-04-09T10:26:40.697Z,20.80
2018-04-09T10:27:41.793Z,20.80
2018-04-09T10:28:42.855Z,20.80
2018-04-09T10:29:43.930Z,20.90
2018-04-09T10:30:45.738Z,20.90
2018-04-09T10:31:46.872Z,20.90
2018-04-09T10:32:47.989Z,20.90
2018-04-09T10:33:49.086Z,20.90
2018-04-09T10:34:50.164Z,20.90
2018-04-09T10:35:51.236Z,21.00
2018-04-09T10:36:53.033Z,21.00
2018-04-09T10:37:54.100Z,21.00
2018-04-09T10:38:55.167Z,20.90
2018-04-09T10:39:56.281Z,21.00
2018-04-09T10:40:58.780Z,21.10
2018-04-09T10:41:59.880Z,21.10
2018-04-09T10:43:00.978Z,21.10
2018-04-09T10:44:02.092Z,21.10
2018-04-09T10:45:03.168Z,21.20
2018-04-09T10:46:04.233Z,21.20
2018-04-09T10:47:05.316Z,21.20
2018-04-09T10:48:07.156Z,21.20
2018-04-09T10:49:08.223Z,21.10
2018-04-09T10:50:09.297Z,21.20
2018-04-09T10:51:10.397Z,21.20
2018-04-09T10:52:12.196Z,21.20
2018-04-09T10:53:13.301Z,21.10
2018-04-09T10:54:14.359Z,21.00
2018-04-09T10:55:15.448Z,21.10
2018-04-09T10:56:16.535Z,21.20
2018-04-09T10:57:17.626Z,21.10
2018-04-09T10:58:18.694Z,21.20
2018-04-09T10:59:19.800Z,21.20
2018-04-09T11:00:20.896Z,21.20
2018-04-09T11:01:22.729Z,21.30
2018-04-09T11:02:23.782Z,21.30
2018-04-09T11:03:25.592Z,21.40
2018-04-09T11:04:26.646Z,21.30
2018-04-09T11:05:28.484Z,21.40
2018-04-09T11:06:29.631Z,21.40
2018-04-09T11:07:31.433Z,21.50
2018-04-09T11:08:32.505Z,21.40
2018-04-09T11:09:33.577Z,21.40
2018-04-09T11:10:35.381Z,21.50
2018-04-09T11:11:36.442Z,21.50
2018-04-09T11:12:38.236Z,21.40
2018-04-09T11:13:39.366Z,21.40
2018-04-09T11:14:40.407Z,21.40
2018-04-09T11:15:41.468Z,21.40
2018-04-09T11:16:42.546Z,21.40
2018-04-09T11:17:43.629Z,21.40
2018-04-09T11:18:44.693Z,21.50
2018-04-09T11:19:46.515Z,21.40
2018-04-09T11:20:47.573Z,21.50
2018-04-09T11:21:48.648Z,21.50
2018-04-09T11:22:49.770Z,21.50
2018-04-09T11:23:51.638Z,21.60
2018-04-09T11:24:52.735Z,21.70
2018-04-09T11:25:53.812Z,21.70
2018-04-09T11:26:54.929Z,21.70
2018-04-09T11:27:56.061Z,21.80
2018-04-09T11:28:57.125Z,21.90
2018-04-09T11:29:58.180Z,22.00
2018-04-09T11:30:59.269Z,22.00
2018-04-09T11:32:00.322Z,22.10
2018-04-09T11:33:02.156Z,22.10
2018-04-09T11:34:03.263Z,22.10
2018-04-09T11:35:04.361Z,22.20
2018-04-09T11:36:05.468Z,22.20
2018-04-09T11:37:06.588Z,22.30
2018-04-09T11:38:07.623Z,22.40
2018-04-09T11:39:08.714Z,22.40
2018-04-09T11:40:09.801Z,22.40
2018-04-09T11:41:10.888Z,22.40
2018-04-09T11:42:11.964Z,22.40
2018-04-09T11:43:13.086Z,22.40
2018-04-09T11:44:14.154Z,22.50
2018-04-09T11:45:15.220Z,22.60
2018-04-09T11:46:16.304Z,22.60
2018-04-09T11:47:17.388Z,22.60
2018-04-09T11:48:18.483Z,22.60
2018-04-09T11:49:20.366Z,22.70
2018-04-09T11:50:21.437Z,22.60
2018-04-09T11:51:22.747Z,22.80
2018-04-09T11:52:24.566Z,22.70
2018-04-09T11:53:25.680Z,22.70
2018-04-09T11:54:27.530Z,22.70
2018-04-09T11:55:28.603Z,22.70
2018-04-09T11:56:29.667Z,22.80
2018-04-09T11:57:30.911Z,22.80
2018-04-09T11:58:31.998Z,22.80
2018-04-09T11:59:33.101Z,22.90
2018-04-09T12:00:34.175Z,22.90
2018-04-09T12:01:35.246Z,22.90
2018-04-09T12:02:36.316Z,22.90
2018-04-09T12:03:37.377Z,23.00
2018-04-09T12:04:38.435Z,23.00
2018-04-09T12:05:39.502Z,23.10
2018-04-09T12:06:40.570Z,23.00
2018-04-09T12:07:41.678Z,23.00
2018-04-09T12:08:42.763Z,23.10
2018-04-09T12:09:43.846Z,23.10
2018-04-09T12:10:44.908Z,23.10
2018-04-09T12:11:46.001Z,23.00
2018-04-09T12:12:47.058Z,23.00
2018-04-09T12:13:48.115Z,23.00
2018-04-09T12:14:49.195Z,23.10
2018-04-09T12:15:50.254Z,23.10
2018-04-09T12:16:51.343Z,23.10
2018-04-09T12:17:53.151Z,23.30
2018-04-09T12:18:54.209Z,23.30
2018-04-09T12:19:55.281Z,23.30
2018-04-09T12:20:56.330Z,23.40
2018-04-09T12:21:57.403Z,23.50
2018-04-09T12:22:58.467Z,23.50
2018-04-09T12:23:59.527Z,23.60
2018-04-09T12:25:00.585Z,23.60
2018-04-09T12:26:01.664Z,23.70
2018-04-09T12:27:02.750Z,23.90
2018-04-09T12:28:03.799Z,23.80
2018-04-09T12:29:04.858Z,23.80
2018-04-09T12:30:05.939Z,23.90
2018-04-09T12:31:07.020Z,23.90
2018-04-09T12:32:08.087Z,23.90
2018-04-09T12:33:09.138Z,23.90
2018-04-09T12:34:10.217Z,23.90
2018-04-09T12:35:11.271Z,23.90
2018-04-09T12:36:12.355Z,23.90
2018-04-09T12:37:14.199Z,23.90
2018-04-09T12:38:15.274Z,23.80
2018-04-09T12:39:16.310Z,23.80
2018-04-09T12:40:17.390Z,23.80
2018-04-09T12:45:40.655Z,23.70
2018-04-09T12:46:41.735Z,23.70
2018-04-09T12:47:42.819Z,23.60
2018-04-09T12:48:43.859Z,23.60
2018-04-09T12:49:44.924Z,23.50
2018-04-09T12:50:46.736Z,23.50
2018-04-09T12:51:47.795Z,23.50
2018-04-09T12:52:49.669Z,23.50
2018-04-09T12:53:51.443Z,23.50
2018-04-09T12:54:52.506Z,23.50
2018-04-09T12:55:53.572Z,23.60
2018-04-09T12:56:55.383Z,23.60
2018-04-09T12:57:56.445Z,23.70
2018-04-09T12:58:58.247Z,23.70
2018-04-09T12:59:59.286Z,23.60
2018-04-09T13:02:01.773Z,23.80
2018-04-09T13:03:02.838Z,23.70
2018-04-09T13:04:03.921Z,23.80
2018-04-09T13:05:04.986Z,23.80
2018-04-09T13:06:06.815Z,23.90
2018-04-09T13:07:07.878Z,23.80
2018-04-09T13:08:09.679Z,23.90
2018-04-09T13:09:10.747Z,23.90
2018-04-09T13:10:11.849Z,23.80
2018-04-09T13:11:12.858Z,23.90
2018-04-09T13:12:13.939Z,23.90
2018-04-09T13:13:15.005Z,23.90
2018-04-09T13:14:16.054Z,23.90
2018-04-09T13:15:17.123Z,23.90
2018-04-09T13:16:18.178Z,24.00
2018-04-09T13:17:19.993Z,24.00